Time;durP1;ratioP1;P1;durP2;ratioP2;P2;SDS_P1;SDS_P2;PMS_P1;PMS_P2;Temp;Humidity;BMP_temperature;BMP_pressure;BME280_temperature;BME280_humidity;BME280_pressure;Samples;Min_cycle;Max_cycle;Signal;HPM_P1;HPM_P2
2022/08/27 00:02:23;;;;;;;;;;;18.30;99.90;;;;;;5101262;28;19928;-72
2022/08/27 00:04:50;;;;;;;;;;;18.30;99.90;;;;;;5101120;28;19920;-72
2022/08/27 00:07:17;;;;;;;;;;;18.30;99.90;;;;;;5099710;28;19996;-72
2022/08/27 00:09:44;;;;;;;;;;;18.30;99.90;;;;;;5084488;28;19921;-72
2022/08/27 00:12:12;;;;;;;;;;;18.30;99.90;;;;;;5101709;28;19920;-72
2022/08/27 00:14:39;;;;;;;;;;;18.40;99.90;;;;;;5102533;28;20123;-71
2022/08/27 00:17:06;;;;;;;;;;;18.40;99.90;;;;;;5090954;28;19921;-72
2022/08/27 00:19:34;;;;;;;;;;;18.40;99.90;;;;;;5102815;28;19995;-71
2022/08/27 00:22:01;;;;;;;;;;;18.40;99.90;;;;;;5101126;28;19920;-71
2022/08/27 00:24:27;;;;;;;;;;;18.30;99.90;;;;;;5106724;28;20282;-74
2022/08/27 00:26:54;;;;;;;;;;;18.30;99.90;;;;;;5094027;28;20276;-73
2022/08/27 00:29:22;;;;;;;;;;;18.40;99.90;;;;;;5086603;28;20172;-71
2022/08/27 00:31:49;;;;;;;;;;;18.30;99.90;;;;;;5086216;28;20147;-72
2022/08/27 00:34:15;;;;;;;;;;;18.30;99.90;;;;;;5086267;28;19955;-72
2022/08/27 00:36:42;;;;;;;;;;;18.30;99.90;;;;;;5103200;28;19920;-72
2022/08/27 00:39:09;;;;;;;;;;;18.30;99.90;;;;;;5094633;28;20119;-72
2022/08/27 00:41:36;;;;;;;;;;;18.30;99.90;;;;;;5106329;28;19991;-71
2022/08/27 00:44:02;;;;;;;;;;;18.30;99.90;;;;;;5106025;28;19920;-72
2022/08/27 00:46:33;;;;;;;;;;;18.30;99.90;;;;;;5106361;28;20126;-72
2022/08/27 00:49:02;;;;;;;;;;;18.30;99.90;;;;;;5101749;28;19996;-72
2022/08/27 00:51:30;;;;;;;;;;;18.30;99.90;;;;;;5086249;28;20176;-72
2022/08/27 00:53:57;;;;;;;;;;;18.30;99.90;;;;;;5086017;28;19952;-71
2022/08/27 00:56:26;;;;;;;;;;;18.30;99.90;;;;;;5090179;28;19920;-71
2022/08/27 00:58:53;;;;;;;;;;;18.20;99.90;;;;;;5102837;28;19920;-72
2022/08/27 01:01:22;;;;;;;;;;;18.20;99.90;;;;;;5095455;28;19920;-72
2022/08/27 01:03:52;;;;;;;;;;;18.20;99.90;;;;;;5104569;28;19920;-71
2022/08/27 01:06:20;;;;;;;;;;;18.30;99.90;;;;;;5088822;28;19991;-72
2022/08/27 01:08:50;;;;;;;;;;;18.30;99.90;;;;;;5103795;28;19927;-72
2022/08/27 01:11:17;;;;;;;;;;;18.30;99.90;;;;;;5097950;28;19936;-72
2022/08/27 01:13:44;;;;;;;;;;;18.30;99.90;;;;;;5085396;28;19921;-72
2022/08/27 01:16:11;;;;;;;;;;;18.30;99.90;;;;;;5085504;28;19984;-72
2022/08/27 01:18:38;;;;;;;;;;;18.30;99.90;;;;;;5086021;28;20191;-72
2022/08/27 01:21:09;;;;;;;;;;;18.30;99.90;;;;;;5086833;28;19988;-72
2022/08/27 01:23:40;;;;;;;;;;;18.30;99.90;;;;;;5085140;28;19995;-72
2022/08/27 01:26:10;;;;;;;;;;;18.30;99.90;;;;;;5092813;28;19983;-72
2022/08/27 01:28:36;;;;;;;;;;;18.30;99.90;;;;;;5105851;28;19920;-72
2022/08/27 01:31:04;;;;;;;;;;;18.30;99.90;;;;;;5094517;28;20176;-72
2022/08/27 01:33:31;;;;;;;;;;;18.30;99.90;;;;;;5084101;28;19948;-71
2022/08/27 01:35:57;;;;;;;;;;;18.30;99.90;;;;;;5085351;28;19920;-71
2022/08/27 01:38:26;;;;;;;;;;;18.30;99.90;;;;;;5088479;28;19951;-72
2022/08/27 01:40:52;;;;;;;;;;;18.30;99.90;;;;;;5095537;28;19927;-72
2022/08/27 01:43:20;;;;;;;;;;;18.30;99.90;;;;;;5105269;28;19995;-71
2022/08/27 01:45:48;;;;;;;;;;;18.40;99.90;;;;;;5087846;28;19996;-71
2022/08/27 01:48:15;;;;;;;;;;;18.40;99.90;;;;;;5084965;28;20204;-72
2022/08/27 01:50:42;;;;;;;;;;;18.30;99.90;;;;;;5084937;28;19927;-71
2022/08/27 01:53:11;;;;;;;;;;;18.30;99.90;;;;;;5084506;28;19935;-71
2022/08/27 01:55:38;;;;;;;;;;;18.30;99.90;;;;;;5084711;28;19984;-71
2022/08/27 01:58:04;;;;;;;;;;;18.20;99.90;;;;;;5102459;28;19987;-72
2022/08/27 02:00:35;;;;;;;;;;;18.20;99.90;;;;;;5104989;28;19987;-72
2022/08/27 02:03:01;;;;;;;;;;;18.20;99.90;;;;;;5104606;28;19986;-71
2022/08/27 02:05:29;;;;;;;;;;;18.20;99.90;;;;;;5104001;28;19958;-72
2022/08/27 02:07:55;;;;;;;;;;;18.20;99.90;;;;;;5085958;28;19931;-72
2022/08/27 02:10:23;;;;;;;;;;;18.20;99.90;;;;;;5104881;28;20151;-71
2022/08/27 02:12:51;;;;;;;;;;;18.20;99.90;;;;;;5098837;28;20200;-71
2022/08/27 02:15:18;;;;;;;;;;;18.20;99.90;;;;;;5089977;28;19920;-71
2022/08/27 02:17:46;;;;;;;;;;;18.20;99.90;;;;;;5104384;28;19927;-71
2022/08/27 02:20:14;;;;;;;;;;;18.20;99.90;;;;;;5084624;28;19959;-72
2022/08/27 02:22:40;;;;;;;;;;;18.30;99.90;;;;;;5084442;28;19947;-72
2022/08/27 02:25:08;;;;;;;;;;;18.30;99.90;;;;;;5084681;28;19987;-72
2022/08/27 02:27:35;;;;;;;;;;;18.30;99.90;;;;;;5085701;28;20231;-72
2022/08/27 02:30:02;;;;;;;;;;;18.30;99.90;;;;;;5103345;28;19958;-71
2022/08/27 02:32:29;;;;;;;;;;;18.20;99.90;;;;;;5104127;28;19959;-70
2022/08/27 02:34:57;;;;;;;;;;;18.30;99.90;;;;;;5103863;28;19924;-71
2022/08/27 02:37:23;;;;;;;;;;;18.30;99.90;;;;;;5103773;28;20211;-72
2022/08/27 02:39:50;;;;;;;;;;;18.30;99.90;;;;;;5086114;28;19920;-72
2022/08/27 02:42:17;;;;;;;;;;;18.30;99.90;;;;;;5084137;28;19958;-72
2022/08/27 02:44:44;;;;;;;;;;;18.30;99.90;;;;;;5083297;28;20242;-72
2022/08/27 02:47:11;;;;;;;;;;;18.30;99.90;;;;;;5083728;28;19935;-71
2022/08/27 02:49:37;;;;;;;;;;;18.30;99.90;;;;;;5098532;28;19920;-72
2022/08/27 02:52:05;;;;;;;;;;;18.30;99.90;;;;;;5100866;28;19951;-72
2022/08/27 02:54:32;;;;;;;;;;;18.30;99.90;;;;;;5086506;28;19927;-72
2022/08/27 02:56:59;;;;;;;;;;;18.30;99.90;;;;;;5092976;28;19983;-71
2022/08/27 02:59:25;;;;;;;;;;;18.20;99.90;;;;;;5104002;28;20230;-71
2022/08/27 03:01:52;;;;;;;;;;;18.20;99.90;;;;;;5093495;28;20180;-72
2022/08/27 03:04:19;;;;;;;;;;;18.20;99.90;;;;;;5083531;28;20123;-71
2022/08/27 03:06:46;;;;;;;;;;;18.20;99.90;;;;;;5102385;28;20097;-71
2022/08/27 03:09:14;;;;;;;;;;;18.10;99.90;;;;;;5103756;28;20007;-72
2022/08/27 03:11:41;;;;;;;;;;;18.20;99.90;;;;;;5096722;28;20069;-71
2022/08/27 03:14:08;;;;;;;;;;;18.20;99.90;;;;;;5083144;28;20232;-71
2022/08/27 03:16:35;;;;;;;;;;;18.20;99.90;;;;;;5083208;28;19983;-72
2022/08/27 03:19:01;;;;;;;;;;;18.20;99.90;;;;;;5083624;28;19921;-71
2022/08/27 03:21:28;;;;;;;;;;;18.20;99.90;;;;;;5087445;28;20196;-70
2022/08/27 03:23:54;;;;;;;;;;;18.10;99.90;;;;;;5083308;28;19987;-72
2022/08/27 03:26:22;;;;;;;;;;;18.20;99.90;;;;;;5083206;28;19952;-72
2022/08/27 03:28:49;;;;;;;;;;;18.20;99.90;;;;;;5083254;28;19920;-71
2022/08/27 03:31:25;;;;;;;;;;;18.20;99.90;;;;;;5087773;28;19962;-70
2022/08/27 03:33:52;;;;;;;;;;;18.10;99.90;;;;;;5083345;28;19920;-72
2022/08/27 03:36:19;;;;;;;;;;;18.10;99.90;;;;;;5089929;28;20250;-72
2022/08/27 03:38:45;;;;;;;;;;;18.10;99.90;;;;;;5101807;28;19920;-72
2022/08/27 03:41:13;;;;;;;;;;;18.10;99.90;;;;;;5103197;28;20003;-70
2022/08/27 03:43:41;;;;;;;;;;;18.10;99.90;;;;;;5103382;28;19924;-72
2022/08/27 03:46:08;;;;;;;;;;;18.10;99.90;;;;;;5097200;28;19983;-72
2022/08/27 03:48:34;;;;;;;;;;;18.10;99.90;;;;;;5083082;28;19982;-71
2022/08/27 03:51:05;;;;;;;;;;;18.10;99.90;;;;;;5083108;28;20006;-72
2022/08/27 03:53:31;;;;;;;;;;;18.10;99.90;;;;;;5091514;28;19927;-72
2022/08/27 03:55:58;;;;;;;;;;;18.10;99.90;;;;;;5101397;28;19947;-72
2022/08/27 03:58:25;;;;;;;;;;;18.10;99.90;;;;;;5086705;28;19920;-72
2022/08/27 04:00:53;;;;;;;;;;;18.10;99.90;;;;;;5087355;28;19991;-71
2022/08/27 04:03:19;;;;;;;;;;;18.10;99.90;;;;;;5086788;28;19991;-72
2022/08/27 04:05:51;;;;;;;;;;;18.10;99.90;;;;;;5088915;28;19920;-71
2022/08/27 04:08:18;;;;;;;;;;;18.10;99.90;;;;;;5106756;28;20178;-71
2022/08/27 04:10:45;;;;;;;;;;;18.10;99.90;;;;;;5106782;28;20046;-71
2022/08/27 04:13:12;;;;;;;;;;;18.10;99.90;;;;;;5100888;28;19920;-71
2022/08/27 04:15:42;;;;;;;;;;;18.10;99.90;;;;;;5102870;22;19917;-75
2022/08/27 04:18:10;;;;;;;;;;;18.10;99.90;;;;;;5087048;28;19979;-75
2022/08/27 04:20:37;;;;;;;;;;;18.10;99.90;;;;;;5088821;28;19920;-75
2022/08/27 04:23:04;;;;;;;;;;;18.10;99.90;;;;;;5106598;28;19991;-74
2022/08/27 04:25:30;;;;;;;;;;;18.00;99.90;;;;;;5106118;28;20199;-74
2022/08/27 04:27:57;;;;;;;;;;;18.00;99.90;;;;;;5100558;28;20111;-75
2022/08/27 04:30:24;;;;;;;;;;;18.00;99.90;;;;;;5086510;28;19959;-74
2022/08/27 04:32:50;;;;;;;;;;;18.00;99.90;;;;;;5085966;28;19959;-75
2022/08/27 04:35:18;;;;;;;;;;;18.00;99.90;;;;;;5086389;28;19999;-75
2022/08/27 04:37:45;;;;;;;;;;;18.00;99.90;;;;;;5101092;28;19959;-74
2022/08/27 04:40:12;;;;;;;;;;;18.00;99.90;;;;;;5106382;28;19920;-74
2022/08/27 04:42:38;;;;;;;;;;;18.00;99.90;;;;;;5095243;28;19928;-74
2022/08/27 04:45:05;;;;;;;;;;;17.90;99.90;;;;;;5085814;28;19966;-75
2022/08/27 04:47:32;;;;;;;;;;;18.00;99.90;;;;;;5086266;28;19952;-74
2022/08/27 04:49:59;;;;;;;;;;;17.90;99.90;;;;;;5086129;28;19921;-74
2022/08/27 04:52:27;;;;;;;;;;;17.90;99.90;;;;;;5099961;28;19927;-74
2022/08/27 04:54:54;;;;;;;;;;;17.90;99.90;;;;;;5088518;28;19919;-74
2022/08/27 04:57:20;;;;;;;;;;;17.90;99.90;;;;;;5091562;28;19920;-74
2022/08/27 04:59:47;;;;;;;;;;;17.90;99.90;;;;;;5086184;28;20155;-75
2022/08/27 05:02:14;;;;;;;;;;;17.90;99.90;;;;;;5086359;28;19954;-74
2022/08/27 05:04:40;;;;;;;;;;;17.90;99.90;;;;;;5103518;28;19991;-74
2022/08/27 05:07:08;;;;;;;;;;;18.00;99.90;;;;;;5087575;28;20170;-74
2022/08/27 05:09:37;;;;;;;;;;;17.90;99.90;;;;;;5086011;28;19999;-74
2022/08/27 05:12:04;;;;;;;;;;;17.90;99.90;;;;;;5092188;28;19927;-74
2022/08/27 05:14:31;;;;;;;;;;;17.90;99.90;;;;;;5091306;28;19951;-73
2022/08/27 05:16:58;;;;;;;;;;;17.90;99.90;;;;;;5085588;28;19926;-73
2022/08/27 05:19:24;;;;;;;;;;;17.90;99.90;;;;;;5085671;28;20187;-73
2022/08/27 05:21:52;;;;;;;;;;;17.90;99.90;;;;;;5085550;28;19927;-74
2022/08/27 05:24:19;;;;;;;;;;;18.00;99.90;;;;;;5085035;28;19921;-73
2022/08/27 05:26:47;;;;;;;;;;;17.90;99.90;;;;;;5081340;28;19959;-73
2022/08/27 05:29:14;;;;;;;;;;;18.00;99.90;;;;;;5085449;28;20115;-73
2022/08/27 05:31:40;;;;;;;;;;;18.00;99.90;;;;;;5085297;28;19987;-73
2022/08/27 05:34:08;;;;;;;;;;;18.00;99.90;;;;;;5093296;28;20003;-73
2022/08/27 05:36:35;;;;;;;;;;;18.00;99.90;;;;;;5105245;28;19947;-74
2022/08/27 05:39:03;;;;;;;;;;;18.00;99.90;;;;;;5105635;28;19924;-74
2022/08/27 05:41:30;;;;;;;;;;;18.10;99.90;;;;;;5105651;28;19958;-75
2022/08/27 05:44:00;;;;;;;;;;;18.10;99.90;;;;;;5104613;28;19987;-74
2022/08/27 05:46:27;;;;;;;;;;;18.20;99.90;;;;;;5105055;28;19927;-74
2022/08/27 05:48:56;;;;;;;;;;;18.20;99.90;;;;;;5105537;28;19920;-74
2022/08/27 05:51:23;;;;;;;;;;;18.20;99.90;;;;;;5105320;28;19920;-73
2022/08/27 05:53:50;;;;;;;;;;;18.20;99.90;;;;;;5097783;28;19947;-73
2022/08/27 05:56:18;;;;;;;;;;;18.20;99.90;;;;;;5085008;28;19951;-73
2022/08/27 06:01:31;;;;;;;;;;;18.30;99.90;;;;;;5085088;28;19922;-74
2022/08/27 06:03:58;;;;;;;;;;;18.40;99.90;;;;;;5084492;28;20147;-73
2022/08/27 06:06:24;;;;;;;;;;;18.30;99.90;;;;;;5084615;28;19951;-74
2022/08/27 06:08:52;;;;;;;;;;;18.40;99.90;;;;;;5084742;28;19984;-73
2022/08/27 06:11:19;;;;;;;;;;;18.40;99.90;;;;;;5084516;28;20168;-74
2022/08/27 06:13:46;;;;;;;;;;;18.40;99.90;;;;;;5083978;28;19927;-73
2022/08/27 06:16:14;;;;;;;;;;;18.40;99.90;;;;;;5084890;28;19991;-74
2022/08/27 06:18:43;;;;;;;;;;;18.50;99.90;;;;;;5084529;28;19963;-73
2022/08/27 06:21:10;;;;;;;;;;;18.50;99.90;;;;;;5083961;28;19983;-73
2022/08/27 06:23:37;;;;;;;;;;;18.50;99.90;;;;;;5083775;28;20042;-73
2022/08/27 06:26:05;;;;;;;;;;;18.50;99.90;;;;;;5082160;28;19935;-73
2022/08/27 06:28:33;;;;;;;;;;;18.60;99.90;;;;;;5081744;28;20204;-73
2022/08/27 06:31:03;;;;;;;;;;;18.60;99.90;;;;;;5084377;28;19958;-73
2022/08/27 06:33:30;;;;;;;;;;;18.60;99.90;;;;;;5089596;28;19920;-73
2022/08/27 06:35:59;;;;;;;;;;;18.70;99.90;;;;;;5104279;28;19933;-72
2022/08/27 06:38:26;;;;;;;;;;;18.70;99.90;;;;;;5104417;28;20230;-73
2022/08/27 06:40:53;;;;;;;;;;;18.70;99.90;;;;;;5104466;28;19924;-73
2022/08/27 06:43:20;;;;;;;;;;;18.80;99.90;;;;;;5099684;28;19956;-73
2022/08/27 06:45:47;;;;;;;;;;;18.80;99.90;;;;;;5083939;28;19963;-73
2022/08/27 06:48:13;;;;;;;;;;;18.80;99.90;;;;;;5083981;28;19956;-72
2022/08/27 06:50:40;;;;;;;;;;;18.90;99.90;;;;;;5083912;28;19991;-72
2022/08/27 06:53:08;;;;;;;;;;;18.90;99.90;;;;;;5083145;28;20255;-72
2022/08/27 06:55:40;;;;;;;;;;;19.00;99.90;;;;;;5083626;28;20287;-72
2022/08/27 06:58:07;;;;;;;;;;;18.90;99.90;;;;;;5083970;28;19956;-73
2022/08/27 07:00:33;;;;;;;;;;;18.90;99.90;;;;;;5083747;28;19959;-72
2022/08/27 07:03:03;;;;;;;;;;;18.90;99.90;;;;;;5083127;28;19983;-74
2022/08/27 07:05:30;;;;;;;;;;;19.00;99.90;;;;;;5086417;28;19920;-73
2022/08/27 07:07:57;;;;;;;;;;;19.00;99.90;;;;;;5104166;28;19920;-73
2022/08/27 07:10:25;;;;;;;;;;;19.00;99.90;;;;;;5103725;28;19926;-73
2022/08/27 07:12:51;;;;;;;;;;;19.00;99.90;;;;;;5103326;28;20187;-72
2022/08/27 07:15:18;;;;;;;;;;;19.00;99.90;;;;;;5103116;28;19991;-73
2022/08/27 07:17:45;;;;;;;;;;;19.00;99.90;;;;;;5103765;28;19962;-73
2022/08/27 07:20:12;;;;;;;;;;;19.00;99.90;;;;;;5103600;28;19983;-73
2022/08/27 07:22:39;;;;;;;;;;;19.00;99.90;;;;;;5103339;28;19983;-72
2022/08/27 07:25:06;;;;;;;;;;;19.00;99.90;;;;;;5101790;28;19920;-73
2022/08/27 07:27:34;;;;;;;;;;;19.00;99.90;;;;;;5102812;28;19920;-73
2022/08/27 07:30:00;;;;;;;;;;;18.90;99.90;;;;;;5103527;28;19920;-73
2022/08/27 07:32:27;;;;;;;;;;;19.00;99.90;;;;;;5102596;28;19955;-73
2022/08/27 07:34:54;;;;;;;;;;;19.00;99.90;;;;;;5102801;28;19981;-73
2022/08/27 07:37:21;;;;;;;;;;;19.00;99.90;;;;;;5102779;28;19920;-71
2022/08/27 07:39:47;;;;;;;;;;;19.00;99.90;;;;;;5103515;28;19920;-73
2022/08/27 07:44:59;;;;;;;;;;;19.10;99.90;;;;;;5103060;28;20131;-73
2022/08/27 07:47:26;;;;;;;;;;;19.10;99.90;;;;;;5103250;28;19991;-74
2022/08/27 07:49:53;;;;;;;;;;;19.10;99.90;;;;;;5103423;28;19988;-73
2022/08/27 07:52:19;;;;;;;;;;;19.00;99.90;;;;;;5103424;28;19951;-74
2022/08/27 07:54:46;;;;;;;;;;;19.00;99.90;;;;;;5102781;28;19927;-74
2022/08/27 07:57:13;;;;;;;;;;;19.00;99.90;;;;;;5086313;28;19952;-72
2022/08/27 07:59:39;;;;;;;;;;;19.00;99.90;;;;;;5082959;28;19921;-73
2022/08/27 08:02:07;;;;;;;;;;;19.00;99.90;;;;;;5083293;28;19983;-73
2022/08/27 08:04:34;;;;;;;;;;;19.00;99.90;;;;;;5082544;28;19920;-74
2022/08/27 08:07:01;;;;;;;;;;;19.10;99.90;;;;;;5083255;28;19920;-73
2022/08/27 08:09:29;;;;;;;;;;;19.10;99.90;;;;;;5083320;28;19959;-73
2022/08/27 08:11:56;;;;;;;;;;;19.20;99.90;;;;;;5083091;28;19958;-73
2022/08/27 08:14:22;;;;;;;;;;;19.20;99.90;;;;;;5082387;28;19982;-74
2022/08/27 08:16:49;;;;;;;;;;;19.20;99.90;;;;;;5095592;28;19951;-73
2022/08/27 08:19:17;;;;;;;;;;;19.30;99.90;;;;;;5102960;28;19920;-73
2022/08/27 08:21:44;;;;;;;;;;;19.40;99.90;;;;;;5103409;28;19986;-73
2022/08/27 08:24:11;;;;;;;;;;;19.30;99.90;;;;;;5089597;28;19967;-73
2022/08/27 08:26:40;;;;;;;;;;;19.30;99.90;;;;;;5078752;28;19992;-72
2022/08/27 08:29:06;;;;;;;;;;;19.40;99.90;;;;;;5082621;28;19920;-73
2022/08/27 08:31:33;;;;;;;;;;;19.40;99.90;;;;;;5082943;28;19920;-73
2022/08/27 08:34:00;;;;;;;;;;;19.40;99.90;;;;;;5082866;28;20183;-72
2022/08/27 08:36:28;;;;;;;;;;;19.40;99.90;;;;;;5103328;28;19954;-73
2022/08/27 08:38:55;;;;;;;;;;;19.50;99.90;;;;;;5102355;28;19958;-72
2022/08/27 08:41:36;;;;;;;;;;;19.50;99.90;;;;;;5103003;28;19920;-73
2022/08/27 08:44:05;;;;;;;;;;;19.50;99.90;;;;;;5104858;28;20235;-73
2022/08/27 08:46:34;;;;;;;;;;;19.60;99.90;;;;;;5106510;28;19959;-72
2022/08/27 08:49:02;;;;;;;;;;;19.60;99.90;;;;;;5094153;28;19951;-73
2022/08/27 08:51:33;;;;;;;;;;;19.60;99.90;;;;;;5086198;28;19960;-73
2022/08/27 08:54:01;;;;;;;;;;;19.60;99.90;;;;;;5085628;28;20089;-73
2022/08/27 08:56:30;;;;;;;;;;;19.70;99.90;;;;;;5086022;28;19920;-73
2022/08/27 08:58:59;;;;;;;;;;;19.70;99.90;;;;;;5096778;28;19927;-73
2022/08/27 09:01:26;;;;;;;;;;;19.70;99.90;;;;;;5106341;28;19960;-73
2022/08/27 09:03:56;;;;;;;;;;;19.70;99.90;;;;;;5105663;28;19959;-73
2022/08/27 09:06:26;;;;;;;;;;;19.80;99.90;;;;;;5105935;28;19958;-73
2022/08/27 09:08:55;;;;;;;;;;;19.80;99.90;;;;;;5106351;28;19958;-73
2022/08/27 09:11:26;;;;;;;;;;;19.80;99.90;;;;;;5106199;28;19927;-72
2022/08/27 09:13:56;;;;;;;;;;;19.80;99.90;;;;;;5100509;28;20224;-73
2022/08/27 09:16:22;;;;;;;;;;;19.80;99.90;;;;;;5105644;28;19951;-73
2022/08/27 09:18:49;;;;;;;;;;;19.80;99.90;;;;;;5105896;28;19994;-73
2022/08/27 09:21:20;;;;;;;;;;;19.70;99.90;;;;;;5105586;28;19966;-72
2022/08/27 09:23:50;;;;;;;;;;;19.80;99.90;;;;;;5105551;28;19920;-74
2022/08/27 09:26:19;;;;;;;;;;;19.80;99.90;;;;;;5103226;28;20175;-74
2022/08/27 09:31:30;;;;;;;;;;;19.80;99.90;;;;;;5104856;28;19926;-73
2022/08/27 09:33:56;;;;;;;;;;;19.80;99.90;;;;;;5105028;28;19924;-73
2022/08/27 09:36:23;;;;;;;;;;;19.80;99.90;;;;;;5105690;28;19920;-73
2022/08/27 09:38:51;;;;;;;;;;;19.80;99.90;;;;;;5105634;28;19920;-74
2022/08/27 09:41:22;;;;;;;;;;;19.80;99.90;;;;;;5096394;28;19920;-73
2022/08/27 09:43:56;;;;;;;;;;;19.70;99.90;;;;;;5084587;28;19943;-73
2022/08/27 09:46:24;;;;;;;;;;;19.80;99.90;;;;;;5085213;28;19983;-72
2022/08/27 09:48:51;;;;;;;;;;;19.80;99.90;;;;;;5085276;28;19952;-72
2022/08/27 09:51:19;;;;;;;;;;;19.70;99.90;;;;;;5085522;28;19999;-72
2022/08/27 09:53:49;;;;;;;;;;;19.70;99.90;;;;;;5084340;28;19987;-72
2022/08/27 09:56:24;;;;;;;;;;;19.70;99.90;;;;;;5083884;28;19920;-72
2022/08/27 09:58:52;;;;;;;;;;;19.70;99.90;;;;;;5085228;28;19927;-72
2022/08/27 10:01:20;;;;;;;;;;;19.70;99.90;;;;;;5096796;28;19983;-72
2022/08/27 10:03:46;;;;;;;;;;;19.80;99.90;;;;;;5104530;28;19979;-72
2022/08/27 10:06:13;;;;;;;;;;;19.80;99.90;;;;;;5104752;28;20274;-73
2022/08/27 10:08:41;;;;;;;;;;;19.70;99.90;;;;;;5104890;28;20275;-72
2022/08/27 10:11:11;;;;;;;;;;;19.70;99.90;;;;;;5103396;28;19928;-72
2022/08/27 10:13:45;;;;;;;;;;;19.70;99.90;;;;;;5088849;28;19956;-72
2022/08/27 10:16:26;;;;;;;;;;;19.80;99.90;;;;;;5084543;28;19932;-72
2022/08/27 10:18:55;;;;;;;;;;;19.70;99.90;;;;;;5084528;28;19920;-72
2022/08/27 10:21:24;;;;;;;;;;;19.70;99.90;;;;;;5084399;28;19956;-72
2022/08/27 10:23:57;;;;;;;;;;;19.80;99.90;;;;;;5098763;28;19983;-71
2022/08/27 10:26:26;;;;;;;;;;;19.80;99.90;;;;;;5099970;28;20217;-71
2022/08/27 10:28:59;;;;;;;;;;;19.90;99.90;;;;;;5089381;28;19956;-71
2022/08/27 10:31:31;;;;;;;;;;;19.90;99.90;;;;;;5084194;28;20124;-70
2022/08/27 10:34:05;;;;;;;;;;;19.90;99.90;;;;;;5083419;28;19984;-71
2022/08/27 10:36:36;;;;;;;;;;;19.90;99.90;;;;;;5084425;28;20231;-71
2022/08/27 10:39:07;;;;;;;;;;;19.90;99.90;;;;;;5084291;28;19928;-71
2022/08/27 10:41:35;;;;;;;;;;;19.90;99.90;;;;;;5084216;28;20204;-71
2022/08/27 10:44:19;;;;;;;;;;;19.90;99.90;;;;;;5083550;28;19927;-71
2022/08/27 10:46:53;;;;;;;;;;;19.80;99.90;;;;;;5084342;28;19952;-71
2022/08/27 10:49:25;;;;;;;;;;;19.90;99.90;;;;;;5084063;28;19920;-71
2022/08/27 10:51:55;;;;;;;;;;;19.80;99.90;;;;;;5083953;28;19984;-70
2022/08/27 10:54:26;;;;;;;;;;;19.90;99.90;;;;;;5083180;28;19943;-72
2022/08/27 10:56:56;;;;;;;;;;;19.90;99.90;;;;;;5083853;28;19987;-72
2022/08/27 10:59:27;;;;;;;;;;;19.90;99.90;;;;;;5083796;28;19944;-72
2022/08/27 11:02:01;;;;;;;;;;;19.90;99.90;;;;;;5083912;28;20256;-72
2022/08/27 11:04:29;;;;;;;;;;;19.90;99.90;;;;;;5083171;28;19921;-72
2022/08/27 11:06:58;;;;;;;;;;;20.00;99.90;;;;;;5090246;28;19920;-72
2022/08/27 11:09:32;;;;;;;;;;;20.00;99.90;;;;;;5083644;28;19979;-72
2022/08/27 11:12:00;;;;;;;;;;;20.00;99.90;;;;;;5083758;28;20168;-71
2022/08/27 11:14:29;;;;;;;;;;;20.10;99.90;;;;;;5083011;28;19983;-71
2022/08/27 11:17:02;;;;;;;;;;;20.10;99.90;;;;;;5092918;28;19920;-71
2022/08/27 11:19:31;;;;;;;;;;;20.10;99.90;;;;;;5103508;28;19983;-73
2022/08/27 11:22:04;;;;;;;;;;;20.20;99.90;;;;;;5103712;28;19955;-72
2022/08/27 11:24:32;;;;;;;;;;;20.20;99.90;;;;;;5103112;28;19987;-71
2022/08/27 11:27:02;;;;;;;;;;;20.20;99.90;;;;;;5090203;28;19927;-71
2022/08/27 11:29:31;;;;;;;;;;;20.20;99.90;;;;;;5082190;28;19979;-70
2022/08/27 11:32:03;;;;;;;;;;;20.30;99.90;;;;;;5083629;28;19952;-71
2022/08/27 11:34:35;;;;;;;;;;;20.30;99.90;;;;;;5082944;28;19920;-72
2022/08/27 11:37:08;;;;;;;;;;;20.40;99.90;;;;;;5083500;28;19920;-72
2022/08/27 11:39:39;;;;;;;;;;;20.40;99.90;;;;;;5083691;28;19927;-72
2022/08/27 11:42:08;;;;;;;;;;;20.40;99.90;;;;;;5083637;28;19928;-72
2022/08/27 11:44:40;;;;;;;;;;;20.40;99.90;;;;;;5085264;28;19926;-72
2022/08/27 11:47:11;;;;;;;;;;;20.40;99.90;;;;;;5101035;28;19928;-72
2022/08/27 11:49:42;;;;;;;;;;;20.40;99.90;;;;;;5103504;28;20263;-72
2022/08/27 11:52:10;;;;;;;;;;;20.40;99.90;;;;;;5103659;28;19955;-71
2022/08/27 11:54:44;;;;;;;;;;;20.40;99.90;;;;;;5102901;28;19920;-72
2022/08/27 11:57:14;;;;;;;;;;;20.40;99.90;;;;;;5103997;28;19980;-72
2022/08/27 11:59:42;;;;;;;;;;;20.30;99.90;;;;;;5103740;28;19962;-72
2022/08/27 12:02:23;;;;;;;;;;;20.40;99.90;;;;;;5103704;28;19920;-72
2022/08/27 12:04:49;;;;;;;;;;;20.40;99.90;;;;;;5103119;28;19920;-72
2022/08/27 12:07:28;;;;;;;;;;;20.40;99.90;;;;;;5103476;28;20092;-72
2022/08/27 12:10:01;;;;;;;;;;;20.40;99.90;;;;;;5104002;28;19924;-72
2022/08/27 12:12:33;;;;;;;;;;;20.50;99.90;;;;;;5091184;28;19988;-72
2022/08/27 12:15:03;;;;;;;;;;;20.50;99.90;;;;;;5083475;28;19920;-71
2022/08/27 12:17:43;;;;;;;;;;;20.50;99.90;;;;;;5083080;28;19921;-72
2022/08/27 12:20:18;;;;;;;;;;;20.60;99.90;;;;;;5087174;28;19991;-72
2022/08/27 12:25:55;;;;;;;;;;;20.60;99.90;;;;;;5064021;28;19947;-73
2022/08/27 12:28:24;;;;;;;;;;;20.80;99.90;;;;;;5066533;28;19921;-72
2022/08/27 12:30:51;;;;;;;;;;;20.80;99.90;;;;;;5066889;28;19955;-72
2022/08/27 12:33:23;;;;;;;;;;;20.90;99.90;;;;;;5063709;28;19921;-72
2022/08/27 12:35:52;;;;;;;;;;;21.10;99.90;;;;;;5066669;28;19920;-72
2022/08/27 12:38:23;;;;;;;;;;;21.10;99.90;;;;;;5064914;28;19943;-72
2022/08/27 12:40:51;;;;;;;;;;;21.20;99.90;;;;;;5067505;28;20270;-73
2022/08/27 12:43:19;;;;;;;;;;;21.40;99.90;;;;;;5066247;28;20209;-73
2022/08/27 12:45:47;;;;;;;;;;;21.40;99.90;;;;;;5066938;28;20008;-72
2022/08/27 12:48:17;;;;;;;;;;;21.50;99.90;;;;;;5064173;28;20176;-73
2022/08/27 12:50:50;;;;;;;;;;;21.50;99.90;;;;;;5066949;28;20271;-74
2022/08/27 12:53:22;;;;;;;;;;;21.60;99.90;;;;;;5066141;28;19960;-73
2022/08/27 12:55:58;;;;;;;;;;;21.70;99.90;;;;;;5066753;28;19948;-73
2022/08/27 12:58:34;;;;;;;;;;;21.70;99.90;;;;;;5077639;28;19920;-71
2022/08/27 13:01:11;;;;;;;;;;;21.70;99.90;;;;;;5086347;28;19975;-73
2022/08/27 13:03:39;;;;;;;;;;;21.70;99.90;;;;;;5086058;28;19926;-72
2022/08/27 13:06:18;;;;;;;;;;;21.70;99.90;;;;;;5085934;28;20246;-72
2022/08/27 13:08:45;;;;;;;;;;;21.70;99.90;;;;;;5086245;28;19925;-72
2022/08/27 13:11:17;;;;;;;;;;;21.80;99.90;;;;;;5085746;28;20279;-72
2022/08/27 13:13:44;;;;;;;;;;;21.90;99.90;;;;;;5085139;28;20155;-72
2022/08/27 13:16:11;;;;;;;;;;;21.90;99.90;;;;;;5085413;28;19920;-72
2022/08/27 13:18:38;;;;;;;;;;;21.90;99.90;;;;;;5086398;28;19984;-73
2022/08/27 13:21:07;;;;;;;;;;;21.90;99.90;;;;;;5085510;28;20167;-72
2022/08/27 13:23:35;;;;;;;;;;;21.90;99.90;;;;;;5084298;28;19920;-72
2022/08/27 13:26:04;;;;;;;;;;;21.90;99.90;;;;;;5065567;28;19959;-72
2022/08/27 13:28:34;;;;;;;;;;;21.80;99.90;;;;;;5086332;28;19920;-71
2022/08/27 13:31:01;;;;;;;;;;;21.80;99.90;;;;;;5084433;28;19920;-72
2022/08/27 13:33:29;;;;;;;;;;;21.80;99.90;;;;;;5085108;28;19984;-72
2022/08/27 13:35:57;;;;;;;;;;;21.90;99.90;;;;;;5085904;28;19983;-70
2022/08/27 13:38:25;;;;;;;;;;;21.90;99.90;;;;;;5085855;28;19927;-72
2022/08/27 13:40:56;;;;;;;;;;;21.90;99.90;;;;;;5085733;28;19921;-71
2022/08/27 13:43:27;;;;;;;;;;;22.00;99.90;;;;;;5084963;28;20364;-73
2022/08/27 13:45:54;;;;;;;;;;;22.00;99.90;;;;;;5084955;28;19988;-72
2022/08/27 13:48:21;;;;;;;;;;;22.00;99.90;;;;;;5085106;28;19956;-72
2022/08/27 13:50:50;;;;;;;;;;;22.10;99.90;;;;;;5085258;28;19955;-72
2022/08/27 13:56:05;;;;;;;;;;;22.20;99.90;;;;;;5084822;28;19970;-72
2022/08/27 13:58:33;;;;;;;;;;;22.30;99.90;;;;;;5084654;28;19991;-72
2022/08/27 14:01:08;;;;;;;;;;;22.30;99.90;;;;;;5085235;28;19920;-72
2022/08/27 14:03:35;;;;;;;;;;;22.30;99.90;;;;;;5084300;28;19955;-72
2022/08/27 14:06:02;;;;;;;;;;;22.50;99.90;;;;;;5084747;28;19920;-73
2022/08/27 14:08:30;;;;;;;;;;;22.50;99.90;;;;;;5084463;28;19921;-71
2022/08/27 14:11:01;;;;;;;;;;;22.60;99.90;;;;;;5084853;28;20208;-72
2022/08/27 14:13:37;;;;;;;;;;;22.60;99.90;;;;;;5083954;28;19959;-72
2022/08/27 14:16:12;;;;;;;;;;;22.70;99.90;;;;;;5084468;28;19920;-72
2022/08/27 14:18:50;;;;;;;;;;;22.70;99.90;;;;;;5084796;28;19947;-71
2022/08/27 14:21:17;;;;;;;;;;;22.70;99.90;;;;;;5084381;28;19987;-72
2022/08/27 14:23:44;;;;;;;;;;;22.70;99.90;;;;;;5084048;28;19921;-72
2022/08/27 14:26:10;;;;;;;;;;;22.50;99.90;;;;;;5067629;28;19928;-72
2022/08/27 14:28:38;;;;;;;;;;;22.40;99.90;;;;;;5082609;28;20134;-72
2022/08/27 14:31:05;;;;;;;;;;;22.50;99.90;;;;;;5087862;28;19992;-72
2022/08/27 14:33:32;;;;;;;;;;;22.40;99.90;;;;;;5084516;28;19955;-72
2022/08/27 14:35:59;;;;;;;;;;;22.50;99.90;;;;;;5084091;28;19992;-72
2022/08/27 14:38:29;;;;;;;;;;;22.40;99.90;;;;;;5084080;28;19987;-72